sensor_id;sensor_type;location;lat;lon;timestamp;P1;durP1;ratioP1;P2;durP2;ratioP2
20619;SDS011;10469;42.720;23.252;2023-05-10T00:00:34;7.93;;;5.97;;
20619;SDS011;10469;42.720;23.252;2023-05-10T00:03:03;6.93;;;5.72;;
20619;SDS011;10469;42.720;23.252;2023-05-10T00:05:33;7.70;;;6.05;;
20619;SDS011;10469;42.720;23.252;2023-05-10T00:08:14;7.75;;;6.30;;
20619;SDS011;10469;42.720;23.252;2023-05-10T00:11:03;7.20;;;6.35;;
20619;SDS011;10469;42.720;23.252;2023-05-10T00:13:29;9.05;;;6.47;;
20619;SDS011;10469;42.720;23.252;2023-05-10T00:15:56;8.07;;;6.88;;
20619;SDS011;10469;42.720;23.252;2023-05-10T00:18:22;8.45;;;7.43;;
20619;SDS011;10469;42.720;23.252;2023-05-10T00:20:49;8.48;;;7.53;;
20619;SDS011;10469;42.720;23.252;2023-05-10T00:23:18;11.55;;;9.00;;
20619;SDS011;10469;42.720;23.252;2023-05-10T00:25:53;10.05;;;8.95;;
20619;SDS011;10469;42.720;23.252;2023-05-10T00:28:18;9.93;;;8.88;;
20619;SDS011;10469;42.720;23.252;2023-05-10T00:30:48;12.68;;;10.02;;
20619;SDS011;10469;42.720;23.252;2023-05-10T00:33:19;13.70;;;9.50;;
20619;SDS011;10469;42.720;23.252;2023-05-10T00:35:45;12.98;;;10.57;;
20619;SDS011;10469;42.720;23.252;2023-05-10T00:38:22;11.88;;;9.95;;
20619;SDS011;10469;42.720;23.252;2023-05-10T00:40:50;11.93;;;9.93;;
20619;SDS011;10469;42.720;23.252;2023-05-10T00:43:25;11.85;;;10.05;;
20619;SDS011;10469;42.720;23.252;2023-05-10T00:45:54;11.25;;;10.05;;
20619;SDS011;10469;42.720;23.252;2023-05-10T00:48:28;12.63;;;9.80;;
20619;SDS011;10469;42.720;23.252;2023-05-10T00:51:01;12.20;;;10.60;;
20619;SDS011;10469;42.720;23.252;2023-05-10T00:53:28;12.35;;;10.35;;
20619;SDS011;10469;42.720;23.252;2023-05-10T00:55:56;11.52;;;10.32;;
20619;SDS011;10469;42.720;23.252;2023-05-10T00:58:22;13.25;;;10.85;;
20619;SDS011;10469;42.720;23.252;2023-05-10T01:00:48;14.10;;;11.23;;
20619;SDS011;10469;42.720;23.252;2023-05-10T01:03:15;13.35;;;10.90;;
20619;SDS011;10469;42.720;23.252;2023-05-10T01:05:42;13.48;;;11.18;;
20619;SDS011;10469;42.720;23.252;2023-05-10T01:08:07;14.23;;;11.65;;
20619;SDS011;10469;42.720;23.252;2023-05-10T01:10:33;12.27;;;10.75;;
20619;SDS011;10469;42.720;23.252;2023-05-10T01:12:59;15.52;;;12.00;;
20619;SDS011;10469;42.720;23.252;2023-05-10T01:15:25;13.80;;;12.30;;
20619;SDS011;10469;42.720;23.252;2023-05-10T01:17:51;15.07;;;12.18;;
20619;SDS011;10469;42.720;23.252;2023-05-10T01:20:18;11.43;;;10.20;;
20619;SDS011;10469;42.720;23.252;2023-05-10T01:31:33;13.85;;;10.63;;
20619;SDS011;10469;42.720;23.252;2023-05-10T01:34:20;12.77;;;10.95;;
20619;SDS011;10469;42.720;23.252;2023-05-10T01:36:59;9.95;;;8.95;;
20619;SDS011;10469;42.720;23.252;2023-05-10T01:42:07;11.75;;;10.55;;
20619;SDS011;10469;42.720;23.252;2023-05-10T01:44:37;12.23;;;10.75;;
20619;SDS011;10469;42.720;23.252;2023-05-10T01:47:12;11.55;;;9.75;;
20619;SDS011;10469;42.720;23.252;2023-05-10T01:49:45;10.45;;;9.43;;
20619;SDS011;10469;42.720;23.252;2023-05-10T01:52:15;11.87;;;10.33;;
20619;SDS011;10469;42.720;23.252;2023-05-10T01:54:53;10.93;;;9.68;;
20619;SDS011;10469;42.720;23.252;2023-05-10T01:57:25;11.15;;;8.88;;
20619;SDS011;10469;42.720;23.252;2023-05-10T01:59:52;9.77;;;8.77;;
20619;SDS011;10469;42.720;23.252;2023-05-10T02:02:20;9.23;;;8.23;;
20619;SDS011;10469;42.720;23.252;2023-05-10T02:04:46;9.55;;;8.55;;
20619;SDS011;10469;42.720;23.252;2023-05-10T02:07:14;10.63;;;8.85;;
20619;SDS011;10469;42.720;23.252;2023-05-10T02:09:41;9.02;;;8.13;;
20619;SDS011;10469;42.720;23.252;2023-05-10T02:12:12;8.77;;;7.90;;
20619;SDS011;10469;42.720;23.252;2023-05-10T02:14:39;8.23;;;7.43;;
20619;SDS011;10469;42.720;23.252;2023-05-10T02:17:06;8.88;;;7.97;;
20619;SDS011;10469;42.720;23.252;2023-05-10T02:19:33;7.95;;;7.15;;
20619;SDS011;10469;42.720;23.252;2023-05-10T02:22:01;9.05;;;8.15;;
20619;SDS011;10469;42.720;23.252;2023-05-10T02:24:28;8.55;;;7.75;;
20619;SDS011;10469;42.720;23.252;2023-05-10T02:26:54;8.65;;;7.75;;
20619;SDS011;10469;42.720;23.252;2023-05-10T02:29:22;9.25;;;8.10;;
20619;SDS011;10469;42.720;23.252;2023-05-10T02:31:51;8.73;;;6.55;;
20619;SDS011;10469;42.720;23.252;2023-05-10T02:34:18;8.15;;;7.13;;
20619;SDS011;10469;42.720;23.252;2023-05-10T02:36:46;7.30;;;6.60;;
20619;SDS011;10469;42.720;23.252;2023-05-10T02:39:12;7.13;;;6.28;;
20619;SDS011;10469;42.720;23.252;2023-05-10T02:41:42;8.63;;;6.00;;
20619;SDS011;10469;42.720;23.252;2023-05-10T02:44:10;10.32;;;6.95;;
20619;SDS011;10469;42.720;23.252;2023-05-10T02:46:37;8.88;;;6.65;;
20619;SDS011;10469;42.720;23.252;2023-05-10T02:49:03;12.00;;;6.72;;
20619;SDS011;10469;42.720;23.252;2023-05-10T02:51:30;7.55;;;5.47;;
20619;SDS011;10469;42.720;23.252;2023-05-10T02:54:00;7.68;;;6.50;;
20619;SDS011;10469;42.720;23.252;2023-05-10T02:56:33;7.93;;;6.30;;
20619;SDS011;10469;42.720;23.252;2023-05-10T02:59:00;7.38;;;5.85;;
20619;SDS011;10469;42.720;23.252;2023-05-10T03:01:26;6.20;;;5.55;;
20619;SDS011;10469;42.720;23.252;2023-05-10T03:03:52;7.80;;;5.72;;
20619;SDS011;10469;42.720;23.252;2023-05-10T03:06:17;7.50;;;5.53;;
20619;SDS011;10469;42.720;23.252;2023-05-10T03:08:43;8.02;;;6.68;;
20619;SDS011;10469;42.720;23.252;2023-05-10T03:11:34;11.57;;;5.88;;
20619;SDS011;10469;42.720;23.252;2023-05-10T03:14:21;7.90;;;5.78;;
20619;SDS011;10469;42.720;23.252;2023-05-10T03:22:30;5.93;;;5.30;;
20619;SDS011;10469;42.720;23.252;2023-05-10T03:24:59;6.03;;;5.32;;
20619;SDS011;10469;42.720;23.252;2023-05-10T03:27:30;6.10;;;5.20;;
20619;SDS011;10469;42.720;23.252;2023-05-10T03:29:57;7.05;;;6.03;;
20619;SDS011;10469;42.720;23.252;2023-05-10T03:32:23;7.25;;;6.03;;
20619;SDS011;10469;42.720;23.252;2023-05-10T03:34:48;8.93;;;5.47;;
20619;SDS011;10469;42.720;23.252;2023-05-10T03:37:14;6.53;;;5.80;;
20619;SDS011;10469;42.720;23.252;2023-05-10T03:39:40;6.95;;;6.05;;
20619;SDS011;10469;42.720;23.252;2023-05-10T03:42:05;10.93;;;6.50;;
20619;SDS011;10469;42.720;23.252;2023-05-10T03:44:31;9.13;;;6.40;;
20619;SDS011;10469;42.720;23.252;2023-05-10T03:46:58;7.63;;;6.63;;
20619;SDS011;10469;42.720;23.252;2023-05-10T03:49:24;9.00;;;6.25;;
20619;SDS011;10469;42.720;23.252;2023-05-10T03:51:49;6.75;;;6.00;;
20619;SDS011;10469;42.720;23.252;2023-05-10T03:54:15;7.13;;;6.20;;
20619;SDS011;10469;42.720;23.252;2023-05-10T03:56:40;8.40;;;6.65;;
20619;SDS011;10469;42.720;23.252;2023-05-10T03:59:06;10.13;;;6.93;;
20619;SDS011;10469;42.720;23.252;2023-05-10T04:01:34;8.40;;;6.65;;
20619;SDS011;10469;42.720;23.252;2023-05-10T04:04:02;11.23;;;6.80;;
20619;SDS011;10469;42.720;23.252;2023-05-10T04:06:28;9.25;;;6.68;;
20619;SDS011;10469;42.720;23.252;2023-05-10T04:08:53;9.70;;;6.82;;
20619;SDS011;10469;42.720;23.252;2023-05-10T04:11:20;8.30;;;6.72;;
20619;SDS011;10469;42.720;23.252;2023-05-10T04:13:47;9.13;;;5.88;;
20619;SDS011;10469;42.720;23.252;2023-05-10T04:16:12;7.45;;;6.60;;
20619;SDS011;10469;42.720;23.252;2023-05-10T04:18:38;8.02;;;6.43;;
20619;SDS011;10469;42.720;23.252;2023-05-10T04:21:04;7.88;;;6.22;;
20619;SDS011;10469;42.720;23.252;2023-05-10T04:23:36;10.40;;;6.38;;
20619;SDS011;10469;42.720;23.252;2023-05-10T04:26:01;7.43;;;6.63;;
20619;SDS011;10469;42.720;23.252;2023-05-10T04:28:27;8.63;;;6.15;;
20619;SDS011;10469;42.720;23.252;2023-05-10T04:30:52;6.93;;;5.88;;
20619;SDS011;10469;42.720;23.252;2023-05-10T04:33:18;9.57;;;6.13;;
20619;SDS011;10469;42.720;23.252;2023-05-10T04:35:43;9.82;;;6.65;;
20619;SDS011;10469;42.720;23.252;2023-05-10T04:38:10;10.95;;;5.88;;
20619;SDS011;10469;42.720;23.252;2023-05-10T04:40:35;7.78;;;5.85;;
20619;SDS011;10469;42.720;23.252;2023-05-10T04:43:01;7.03;;;5.97;;
20619;SDS011;10469;42.720;23.252;2023-05-10T04:45:26;8.20;;;6.18;;
20619;SDS011;10469;42.720;23.252;2023-05-10T04:47:52;6.50;;;5.80;;
20619;SDS011;10469;42.720;23.252;2023-05-10T04:50:17;10.95;;;7.28;;
20619;SDS011;10469;42.720;23.252;2023-05-10T04:52:43;6.93;;;5.63;;
20619;SDS011;10469;42.720;23.252;2023-05-10T04:55:08;8.40;;;6.20;;
20619;SDS011;10469;42.720;23.252;2023-05-10T04:57:34;10.23;;;6.63;;
20619;SDS011;10469;42.720;23.252;2023-05-10T05:00:00;10.27;;;6.38;;
20619;SDS011;10469;42.720;23.252;2023-05-10T05:02:27;7.88;;;6.38;;
20619;SDS011;10469;42.720;23.252;2023-05-10T05:04:52;8.82;;;6.22;;
20619;SDS011;10469;42.720;23.252;2023-05-10T05:07:18;8.25;;;6.47;;
20619;SDS011;10469;42.720;23.252;2023-05-10T05:09:43;14.50;;;7.53;;
20619;SDS011;10469;42.720;23.252;2023-05-10T05:12:09;13.10;;;7.00;;
20619;SDS011;10469;42.720;23.252;2023-05-10T05:14:38;7.68;;;6.32;;
20619;SDS011;10469;42.720;23.252;2023-05-10T05:17:04;8.82;;;7.05;;
20619;SDS011;10469;42.720;23.252;2023-05-10T05:19:30;8.82;;;7.40;;
20619;SDS011;10469;42.720;23.252;2023-05-10T05:21:56;9.02;;;6.97;;
20619;SDS011;10469;42.720;23.252;2023-05-10T05:24:21;9.75;;;7.43;;
20619;SDS011;10469;42.720;23.252;2023-05-10T05:26:47;11.70;;;7.47;;
20619;SDS011;10469;42.720;23.252;2023-05-10T05:29:13;10.75;;;6.95;;
20619;SDS011;10469;42.720;23.252;2023-05-10T05:31:38;10.63;;;8.10;;
20619;SDS011;10469;42.720;23.252;2023-05-10T05:34:04;10.50;;;7.28;;
20619;SDS011;10469;42.720;23.252;2023-05-10T05:36:29;9.20;;;7.78;;
20619;SDS011;10469;42.720;23.252;2023-05-10T05:38:56;8.85;;;7.20;;
20619;SDS011;10469;42.720;23.252;2023-05-10T05:41:22;10.65;;;8.32;;
20619;SDS011;10469;42.720;23.252;2023-05-10T05:43:49;9.13;;;7.30;;
20619;SDS011;10469;42.720;23.252;2023-05-10T05:46:14;10.98;;;8.25;;
20619;SDS011;10469;42.720;23.252;2023-05-10T05:48:40;11.25;;;8.93;;
20619;SDS011;10469;42.720;23.252;2023-05-10T05:51:05;10.48;;;7.93;;
20619;SDS011;10469;42.720;23.252;2023-05-10T05:53:31;10.20;;;8.27;;
20619;SDS011;10469;42.720;23.252;2023-05-10T05:55:57;9.05;;;7.57;;
20619;SDS011;10469;42.720;23.252;2023-05-10T05:58:23;11.93;;;8.55;;
20619;SDS011;10469;42.720;23.252;2023-05-10T06:00:50;12.45;;;8.15;;
20619;SDS011;10469;42.720;23.252;2023-05-10T06:03:17;10.13;;;8.48;;
20619;SDS011;10469;42.720;23.252;2023-05-10T06:05:43;11.73;;;8.02;;
20619;SDS011;10469;42.720;23.252;2023-05-10T06:08:09;11.00;;;8.90;;
20619;SDS011;10469;42.720;23.252;2023-05-10T06:10:34;11.38;;;8.05;;
20619;SDS011;10469;42.720;23.252;2023-05-10T06:13:00;12.38;;;8.60;;
20619;SDS011;10469;42.720;23.252;2023-05-10T06:15:26;14.27;;;8.40;;
20619;SDS011;10469;42.720;23.252;2023-05-10T06:17:52;11.80;;;9.07;;
20619;SDS011;10469;42.720;23.252;2023-05-10T06:20:17;9.57;;;8.32;;
20619;SDS011;10469;42.720;23.252;2023-05-10T06:22:43;11.55;;;8.50;;
20619;SDS011;10469;42.720;23.252;2023-05-10T06:25:09;10.73;;;8.05;;
20619;SDS011;10469;42.720;23.252;2023-05-10T06:27:35;12.15;;;9.20;;
20619;SDS011;10469;42.720;23.252;2023-05-10T06:30:00;15.52;;;9.07;;
20619;SDS011;10469;42.720;23.252;2023-05-10T06:32:27;14.40;;;8.73;;
20619;SDS011;10469;42.720;23.252;2023-05-10T06:34:53;12.65;;;8.38;;
20619;SDS011;10469;42.720;23.252;2023-05-10T06:37:18;10.85;;;8.82;;
20619;SDS011;10469;42.720;23.252;2023-05-10T06:39:44;14.50;;;8.52;;
20619;SDS011;10469;42.720;23.252;2023-05-10T06:42:09;15.18;;;7.50;;
20619;SDS011;10469;42.720;23.252;2023-05-10T06:44:35;10.02;;;8.07;;
20619;SDS011;10469;42.720;23.252;2023-05-10T06:47:01;15.77;;;7.57;;
20619;SDS011;10469;42.720;23.252;2023-05-10T06:49:26;9.85;;;7.43;;
20619;SDS011;10469;42.720;23.252;2023-05-10T06:51:52;12.13;;;7.90;;
20619;SDS011;10469;42.720;23.252;2023-05-10T06:54:17;10.88;;;7.45;;
20619;SDS011;10469;42.720;23.252;2023-05-10T06:56:43;10.15;;;8.18;;
20619;SDS011;10469;42.720;23.252;2023-05-10T06:59:08;10.52;;;8.25;;
20619;SDS011;10469;42.720;23.252;2023-05-10T07:01:34;11.43;;;8.07;;
20619;SDS011;10469;42.720;23.252;2023-05-10T07:04:00;9.20;;;7.53;;
20619;SDS011;10469;42.720;23.252;2023-05-10T07:06:25;10.55;;;7.40;;
20619;SDS011;10469;42.720;23.252;2023-05-10T07:08:51;11.10;;;7.28;;
20619;SDS011;10469;42.720;23.252;2023-05-10T07:11:16;8.15;;;6.28;;
20619;SDS011;10469;42.720;23.252;2023-05-10T07:13:42;12.52;;;7.28;;
20619;SDS011;10469;42.720;23.252;2023-05-10T07:16:09;13.98;;;7.75;;
20619;SDS011;10469;42.720;23.252;2023-05-10T07:18:35;11.13;;;7.25;;
20619;SDS011;10469;42.720;23.252;2023-05-10T07:21:00;11.75;;;7.43;;
20619;SDS011;10469;42.720;23.252;2023-05-10T07:23:26;17.27;;;8.00;;
20619;SDS011;10469;42.720;23.252;2023-05-10T07:25:52;12.90;;;8.30;;
20619;SDS011;10469;42.720;23.252;2023-05-10T07:28:18;11.85;;;7.80;;
20619;SDS011;10469;42.720;23.252;2023-05-10T07:30:44;10.25;;;7.82;;
20619;SDS011;10469;42.720;23.252;2023-05-10T07:33:12;10.57;;;7.75;;
20619;SDS011;10469;42.720;23.252;2023-05-10T07:35:39;9.45;;;7.47;;
20619;SDS011;10469;42.720;23.252;2023-05-10T07:38:05;8.35;;;7.05;;
20619;SDS011;10469;42.720;23.252;2023-05-10T07:40:31;10.07;;;8.10;;
20619;SDS011;10469;42.720;23.252;2023-05-10T07:42:57;13.80;;;7.88;;
20619;SDS011;10469;42.720;23.252;2023-05-10T07:45:22;9.50;;;7.95;;
20619;SDS011;10469;42.720;23.252;2023-05-10T07:47:48;18.15;;;8.43;;
20619;SDS011;10469;42.720;23.252;2023-05-10T07:50:14;11.75;;;8.63;;
20619;SDS011;10469;42.720;23.252;2023-05-10T07:52:40;10.02;;;6.95;;
20619;SDS011;10469;42.720;23.252;2023-05-10T07:55:06;14.52;;;8.30;;
20619;SDS011;10469;42.720;23.252;2023-05-10T07:57:33;9.88;;;7.65;;
20619;SDS011;10469;42.720;23.252;2023-05-10T07:59:59;9.10;;;7.47;;
20619;SDS011;10469;42.720;23.252;2023-05-10T08:02:24;12.48;;;8.45;;
20619;SDS011;10469;42.720;23.252;2023-05-10T08:04:50;11.82;;;8.95;;
20619;SDS011;10469;42.720;23.252;2023-05-10T08:07:16;9.85;;;8.80;;
20619;SDS011;10469;42.720;23.252;2023-05-10T08:09:42;11.98;;;7.65;;
20619;SDS011;10469;42.720;23.252;2023-05-10T08:12:07;12.02;;;8.20;;
20619;SDS011;10469;42.720;23.252;2023-05-10T08:14:33;18.92;;;8.18;;
20619;SDS011;10469;42.720;23.252;2023-05-10T08:17:01;13.55;;;8.43;;
20619;SDS011;10469;42.720;23.252;2023-05-10T08:19:28;10.80;;;8.88;;
20619;SDS011;10469;42.720;23.252;2023-05-10T08:21:53;13.77;;;8.38;;
20619;SDS011;10469;42.720;23.252;2023-05-10T08:24:21;9.68;;;7.90;;
20619;SDS011;10469;42.720;23.252;2023-05-10T08:26:47;10.63;;;8.75;;
20619;SDS011;10469;42.720;23.252;2023-05-10T08:29:13;13.23;;;9.05;;
20619;SDS011;10469;42.720;23.252;2023-05-10T08:31:39;10.90;;;8.85;;
20619;SDS011;10469;42.720;23.252;2023-05-10T08:34:05;13.55;;;8.65;;
20619;SDS011;10469;42.720;23.252;2023-05-10T08:36:30;10.50;;;7.45;;
20619;SDS011;10469;42.720;23.252;2023-05-10T08:38:57;11.10;;;8.07;;
20619;SDS011;10469;42.720;23.252;2023-05-10T08:41:23;10.07;;;8.80;;
20619;SDS011;10469;42.720;23.252;2023-05-10T08:43:51;9.93;;;8.10;;
20619;SDS011;10469;42.720;23.252;2023-05-10T08:46:18;9.27;;;8.20;;
20619;SDS011;10469;42.720;23.252;2023-05-10T08:48:45;11.75;;;8.07;;
20619;SDS011;10469;42.720;23.252;2023-05-10T08:51:37;9.57;;;6.80;;
20619;SDS011;10469;42.720;23.252;2023-05-10T08:54:00;11.63;;;8.32;;
20619;SDS011;10469;42.720;23.252;2023-05-10T08:56:26;11.45;;;7.65;;
20619;SDS011;10469;42.720;23.252;2023-05-10T08:58:51;13.40;;;8.07;;
20619;SDS011;10469;42.720;23.252;2023-05-10T09:01:18;10.40;;;7.93;;
20619;SDS011;10469;42.720;23.252;2023-05-10T09:03:45;10.60;;;7.35;;
20619;SDS011;10469;42.720;23.252;2023-05-10T09:06:12;9.68;;;6.95;;
20619;SDS011;10469;42.720;23.252;2023-05-10T09:08:38;9.77;;;7.75;;
20619;SDS011;10469;42.720;23.252;2023-05-10T09:11:06;11.93;;;9.50;;
20619;SDS011;10469;42.720;23.252;2023-05-10T09:13:33;11.77;;;7.95;;
20619;SDS011;10469;42.720;23.252;2023-05-10T09:16:00;10.68;;;8.05;;
20619;SDS011;10469;42.720;23.252;2023-05-10T09:18:26;9.48;;;7.40;;
20619;SDS011;10469;42.720;23.252;2023-05-10T09:20:52;19.77;;;8.98;;
20619;SDS011;10469;42.720;23.252;2023-05-10T09:23:17;12.32;;;8.55;;
20619;SDS011;10469;42.720;23.252;2023-05-10T09:25:43;11.50;;;9.13;;
20619;SDS011;10469;42.720;23.252;2023-05-10T09:28:09;9.77;;;7.38;;
20619;SDS011;10469;42.720;23.252;2023-05-10T09:30:35;14.65;;;9.27;;
20619;SDS011;10469;42.720;23.252;2023-05-10T09:33:01;12.07;;;9.13;;
20619;SDS011;10469;42.720;23.252;2023-05-10T09:35:27;12.73;;;8.85;;
20619;SDS011;10469;42.720;23.252;2023-05-10T09:37:55;9.85;;;7.95;;
20619;SDS011;10469;42.720;23.252;2023-05-10T09:40:25;11.45;;;8.55;;
20619;SDS011;10469;42.720;23.252;2023-05-10T09:45:34;14.38;;;8.88;;
20619;SDS011;10469;42.720;23.252;2023-05-10T09:48:01;11.52;;;7.57;;
20619;SDS011;10469;42.720;23.252;2023-05-10T09:50:28;16.10;;;8.20;;
20619;SDS011;10469;42.720;23.252;2023-05-10T09:52:58;9.68;;;7.43;;
20619;SDS011;10469;42.720;23.252;2023-05-10T09:58:04;11.32;;;7.90;;
20619;SDS011;10469;42.720;23.252;2023-05-10T10:00:35;16.17;;;8.75;;
20619;SDS011;10469;42.720;23.252;2023-05-10T10:03:02;15.25;;;8.05;;
20619;SDS011;10469;42.720;23.252;2023-05-10T10:05:29;11.63;;;8.90;;
20619;SDS011;10469;42.720;23.252;2023-05-10T10:07:58;10.10;;;7.97;;
20619;SDS011;10469;42.720;23.252;2023-05-10T10:10:25;12.77;;;7.88;;
20619;SDS011;10469;42.720;23.252;2023-05-10T10:12:52;14.13;;;8.85;;
20619;SDS011;10469;42.720;23.252;2023-05-10T10:15:18;9.65;;;7.35;;
20619;SDS011;10469;42.720;23.252;2023-05-10T10:17:45;11.07;;;7.57;;
20619;SDS011;10469;42.720;23.252;2023-05-10T10:20:13;12.52;;;7.60;;
20619;SDS011;10469;42.720;23.252;2023-05-10T10:22:39;11.88;;;8.13;;
20619;SDS011;10469;42.720;23.252;2023-05-10T10:25:05;14.10;;;8.82;;
20619;SDS011;10469;42.720;23.252;2023-05-10T10:27:43;8.73;;;7.80;;
20619;SDS011;10469;42.720;23.252;2023-05-10T10:35:52;10.43;;;7.40;;
20619;SDS011;10469;42.720;23.252;2023-05-10T10:38:19;8.93;;;7.18;;
20619;SDS011;10469;42.720;23.252;2023-05-10T10:40:46;15.55;;;6.88;;
20619;SDS011;10469;42.720;23.252;2023-05-10T10:43:22;6.85;;;6.15;;
20619;SDS011;10469;42.720;23.252;2023-05-10T10:46:11;10.18;;;7.65;;
20619;SDS011;10469;42.720;23.252;2023-05-10T10:49:07;9.07;;;7.60;;
20619;SDS011;10469;42.720;23.252;2023-05-10T10:51:38;9.85;;;7.40;;
20619;SDS011;10469;42.720;23.252;2023-05-10T10:54:10;10.60;;;6.80;;
20619;SDS011;10469;42.720;23.252;2023-05-10T10:56:36;10.25;;;7.22;;
20619;SDS011;10469;42.720;23.252;2023-05-10T10:59:02;8.30;;;6.75;;
20619;SDS011;10469;42.720;23.252;2023-05-10T11:01:37;13.10;;;6.90;;
20619;SDS011;10469;42.720;23.252;2023-05-10T11:06:35;11.32;;;5.78;;
20619;SDS011;10469;42.720;23.252;2023-05-10T11:09:07;8.60;;;6.55;;
20619;SDS011;10469;42.720;23.252;2023-05-10T11:11:53;11.57;;;6.88;;
20619;SDS011;10469;42.720;23.252;2023-05-10T11:14:23;8.77;;;6.68;;
20619;SDS011;10469;42.720;23.252;2023-05-10T11:16:49;7.53;;;6.07;;
20619;SDS011;10469;42.720;23.252;2023-05-10T11:19:15;8.07;;;6.10;;
20619;SDS011;10469;42.720;23.252;2023-05-10T11:21:51;10.77;;;6.00;;
20619;SDS011;10469;42.720;23.252;2023-05-10T11:24:30;9.40;;;6.07;;
20619;SDS011;10469;42.720;23.252;2023-05-10T11:26:56;7.50;;;6.00;;
20619;SDS011;10469;42.720;23.252;2023-05-10T11:29:21;6.68;;;5.97;;
20619;SDS011;10469;42.720;23.252;2023-05-10T11:31:47;6.55;;;5.25;;
20619;SDS011;10469;42.720;23.252;2023-05-10T11:34:27;8.35;;;6.45;;
20619;SDS011;10469;42.720;23.252;2023-05-10T11:37:00;6.78;;;5.57;;
20619;SDS011;10469;42.720;23.252;2023-05-10T11:39:27;11.52;;;6.22;;
20619;SDS011;10469;42.720;23.252;2023-05-10T11:41:54;8.13;;;5.55;;
20619;SDS011;10469;42.720;23.252;2023-05-10T11:44:19;10.95;;;6.60;;
20619;SDS011;10469;42.720;23.252;2023-05-10T11:46:45;13.38;;;6.03;;
20619;SDS011;10469;42.720;23.252;2023-05-10T11:49:11;9.02;;;6.35;;
20619;SDS011;10469;42.720;23.252;2023-05-10T11:51:38;11.18;;;6.20;;
20619;SDS011;10469;42.720;23.252;2023-05-10T11:54:07;10.90;;;6.00;;
20619;SDS011;10469;42.720;23.252;2023-05-10T11:56:37;8.88;;;5.72;;
20619;SDS011;10469;42.720;23.252;2023-05-10T11:59:05;10.27;;;6.18;;
20619;SDS011;10469;42.720;23.252;2023-05-10T12:01:32;6.70;;;6.00;;
20619;SDS011;10469;42.720;23.252;2023-05-10T12:04:00;8.65;;;6.20;;
20619;SDS011;10469;42.720;23.252;2023-05-10T12:06:30;7.25;;;6.10;;
20619;SDS011;10469;42.720;23.252;2023-05-10T12:08:57;9.82;;;5.80;;
20619;SDS011;10469;42.720;23.252;2023-05-10T12:11:27;9.45;;;6.60;;
20619;SDS011;10469;42.720;23.252;2023-05-10T12:13:54;10.65;;;6.90;;
20619;SDS011;10469;42.720;23.252;2023-05-10T12:16:21;13.55;;;6.93;;
20619;SDS011;10469;42.720;23.252;2023-05-10T12:18:49;11.35;;;7.07;;
20619;SDS011;10469;42.720;23.252;2023-05-10T12:21:19;9.25;;;6.93;;
20619;SDS011;10469;42.720;23.252;2023-05-10T12:23:46;8.40;;;6.80;;
20619;SDS011;10469;42.720;23.252;2023-05-10T12:26:15;13.98;;;7.15;;
20619;SDS011;10469;42.720;23.252;2023-05-10T12:28:41;6.90;;;6.20;;
20619;SDS011;10469;42.720;23.252;2023-05-10T12:31:06;9.38;;;7.38;;
20619;SDS011;10469;42.720;23.252;2023-05-10T12:33:51;9.60;;;7.07;;
20619;SDS011;10469;42.720;23.252;2023-05-10T12:36:17;11.43;;;7.75;;
20619;SDS011;10469;42.720;23.252;2023-05-10T12:38:49;8.90;;;7.57;;
20619;SDS011;10469;42.720;23.252;2023-05-10T12:41:16;11.65;;;7.30;;
20619;SDS011;10469;42.720;23.252;2023-05-10T12:43:43;7.85;;;6.55;;
20619;SDS011;10469;42.720;23.252;2023-05-10T12:46:16;9.00;;;7.38;;
20619;SDS011;10469;42.720;23.252;2023-05-10T12:48:43;14.83;;;7.23;;
20619;SDS011;10469;42.720;23.252;2023-05-10T12:51:10;10.13;;;7.30;;
20619;SDS011;10469;42.720;23.252;2023-05-10T12:53:42;8.73;;;7.43;;
20619;SDS011;10469;42.720;23.252;2023-05-10T12:56:07;7.43;;;6.32;;
20619;SDS011;10469;42.720;23.252;2023-05-10T12:58:33;12.15;;;6.65;;
20619;SDS011;10469;42.720;23.252;2023-05-10T13:01:00;11.98;;;7.07;;
20619;SDS011;10469;42.720;23.252;2023-05-10T13:03:26;10.20;;;7.28;;
20619;SDS011;10469;42.720;23.252;2023-05-10T13:05:51;10.40;;;7.20;;
20619;SDS011;10469;42.720;23.252;2023-05-10T13:08:17;9.52;;;7.72;;
20619;SDS011;10469;42.720;23.252;2023-05-10T13:10:42;11.95;;;8.15;;
20619;SDS011;10469;42.720;23.252;2023-05-10T13:13:08;12.93;;;7.68;;
20619;SDS011;10469;42.720;23.252;2023-05-10T13:15:34;13.02;;;8.00;;
20619;SDS011;10469;42.720;23.252;2023-05-10T13:18:00;15.13;;;7.72;;
20619;SDS011;10469;42.720;23.252;2023-05-10T13:20:26;12.35;;;7.63;;
20619;SDS011;10469;42.720;23.252;2023-05-10T13:22:52;14.80;;;7.47;;
20619;SDS011;10469;42.720;23.252;2023-05-10T13:25:18;13.40;;;7.38;;
20619;SDS011;10469;42.720;23.252;2023-05-10T13:27:44;9.80;;;6.57;;
20619;SDS011;10469;42.720;23.252;2023-05-10T13:30:10;11.32;;;7.00;;
20619;SDS011;10469;42.720;23.252;2023-05-10T13:32:36;11.48;;;7.30;;
20619;SDS011;10469;42.720;23.252;2023-05-10T13:35:02;14.23;;;7.18;;
20619;SDS011;10469;42.720;23.252;2023-05-10T13:37:31;15.63;;;7.95;;
20619;SDS011;10469;42.720;23.252;2023-05-10T13:40:00;12.85;;;8.00;;
20619;SDS011;10469;42.720;23.252;2023-05-10T13:42:26;11.68;;;6.82;;
20619;SDS011;10469;42.720;23.252;2023-05-10T13:44:52;11.57;;;7.47;;
20619;SDS011;10469;42.720;23.252;2023-05-10T13:47:17;16.70;;;7.95;;
20619;SDS011;10469;42.720;23.252;2023-05-10T13:49:43;10.50;;;7.10;;
20619;SDS011;10469;42.720;23.252;2023-05-10T13:52:09;9.88;;;7.40;;
20619;SDS011;10469;42.720;23.252;2023-05-10T13:54:37;10.98;;;7.03;;
20619;SDS011;10469;42.720;23.252;2023-05-10T13:57:03;11.30;;;6.70;;
20619;SDS011;10469;42.720;23.252;2023-05-10T13:59:29;8.40;;;6.80;;
20619;SDS011;10469;42.720;23.252;2023-05-10T14:01:57;8.88;;;6.30;;
20619;SDS011;10469;42.720;23.252;2023-05-10T14:04:23;9.07;;;6.90;;
20619;SDS011;10469;42.720;23.252;2023-05-10T14:06:48;11.75;;;7.05;;
20619;SDS011;10469;42.720;23.252;2023-05-10T14:09:14;10.88;;;6.72;;
20619;SDS011;10469;42.720;23.252;2023-05-10T14:11:40;8.80;;;6.63;;
20619;SDS011;10469;42.720;23.252;2023-05-10T14:14:08;8.98;;;6.45;;
20619;SDS011;10469;42.720;23.252;2023-05-10T14:16:34;8.38;;;7.03;;
20619;SDS011;10469;42.720;23.252;2023-05-10T14:19:00;10.85;;;7.55;;
20619;SDS011;10469;42.720;23.252;2023-05-10T14:21:26;9.68;;;7.60;;
20619;SDS011;10469;42.720;23.252;2023-05-10T14:23:54;12.70;;;7.97;;
20619;SDS011;10469;42.720;23.252;2023-05-10T14:26:20;12.45;;;7.95;;
20619;SDS011;10469;42.720;23.252;2023-05-10T14:28:46;17.15;;;6.88;;
20619;SDS011;10469;42.720;23.252;2023-05-10T14:31:12;13.82;;;6.50;;
20619;SDS011;10469;42.720;23.252;2023-05-10T14:33:39;8.85;;;6.45;;
20619;SDS011;10469;42.720;23.252;2023-05-10T14:36:05;8.98;;;6.65;;
20619;SDS011;10469;42.720;23.252;2023-05-10T14:38:31;14.63;;;7.40;;
20619;SDS011;10469;42.720;23.252;2023-05-10T14:40:57;8.52;;;6.63;;
20619;SDS011;10469;42.720;23.252;2023-05-10T14:43:22;9.52;;;6.80;;
20619;SDS011;10469;42.720;23.252;2023-05-10T14:45:48;15.25;;;8.05;;
20619;SDS011;10469;42.720;23.252;2023-05-10T14:48:13;8.65;;;6.55;;
20619;SDS011;10469;42.720;23.252;2023-05-10T14:50:42;12.98;;;7.25;;
20619;SDS011;10469;42.720;23.252;2023-05-10T14:53:08;16.85;;;7.13;;
20619;SDS011;10469;42.720;23.252;2023-05-10T14:55:34;9.35;;;7.00;;
20619;SDS011;10469;42.720;23.252;2023-05-10T14:58:00;12.77;;;7.47;;